createdAt,value
2023-04-29T00:01:14.680Z,101057.38
2023-04-29T00:06:18.798Z,101061.75
2023-04-29T00:11:21.481Z,101065.50
2023-04-29T00:16:24.060Z,101067.38
2023-04-29T00:21:28.693Z,101064.22
2023-04-29T00:26:31.776Z,101076.75
2023-04-29T00:31:34.574Z,101078.66
2023-04-29T00:36:38.536Z,101084.19
2023-04-29T00:41:41.337Z,101099.81
2023-04-29T00:46:44.019Z,101099.47
2023-04-29T00:51:48.904Z,101108.25
2023-04-29T00:56:52.205Z,101109.03
2023-04-29T01:01:54.825Z,101104.22
2023-04-29T01:07:15.207Z,101114.97
2023-04-29T01:12:27.201Z,101126.31
2023-04-29T01:17:35.818Z,101105.72
2023-04-29T01:22:40.089Z,101120.03
2023-04-29T01:27:53.631Z,101125.66
2023-04-29T01:33:02.253Z,101136.25
2023-04-29T01:38:19.418Z,101138.56
2023-04-29T01:43:25.586Z,101151.00
2023-04-29T01:48:29.484Z,101150.34
2023-04-29T01:53:32.505Z,101156.63
2023-04-29T01:58:36.456Z,101162.44
2023-04-29T02:04:02.267Z,101153.75
2023-04-29T02:09:05.979Z,101166.50
2023-04-29T02:14:12.478Z,101167.97
2023-04-29T02:19:15.463Z,101170.09
2023-04-29T02:24:18.127Z,101175.19
2023-04-29T02:29:26.396Z,101193.31
2023-04-29T02:34:31.197Z,101190.66
2023-04-29T02:39:33.770Z,101193.41
2023-04-29T02:44:38.570Z,101195.31
2023-04-29T02:49:41.126Z,101208.94
2023-04-29T02:54:44.545Z,101207.72
2023-04-29T02:59:48.496Z,101207.19
2023-04-29T03:04:51.055Z,101206.47
2023-04-29T03:09:53.848Z,101210.66
2023-04-29T03:14:57.992Z,101221.94
2023-04-29T03:20:00.599Z,101227.91
2023-04-29T03:25:03.213Z,101239.84
2023-04-29T03:30:09.138Z,101226.41
2023-04-29T03:35:18.173Z,101246.22
2023-04-29T03:40:39.315Z,101248.00
2023-04-29T03:45:43.314Z,101245.00
2023-04-29T03:50:47.232Z,101243.56
2023-04-29T03:55:49.878Z,101261.19
2023-04-29T04:00:54.523Z,101261.47
2023-04-29T04:06:00.901Z,101259.13
2023-04-29T04:11:04.598Z,101261.56
2023-04-29T04:16:21.826Z,101266.13
2023-04-29T04:21:25.126Z,101272.66
2023-04-29T04:26:35.251Z,101269.81
2023-04-29T04:31:46.898Z,101282.91
2023-04-29T04:36:51.422Z,101290.06
2023-04-29T04:41:54.060Z,101284.03
2023-04-29T04:46:58.440Z,101294.91
2023-04-29T04:52:23.837Z,101305.97
2023-04-29T04:57:37.492Z,101314.88
2023-04-29T05:02:42.614Z,101325.69
2023-04-29T05:07:45.319Z,101323.81
2023-04-29T05:12:48.213Z,101333.06
2023-04-29T05:17:52.274Z,101339.34
2023-04-29T05:22:55.284Z,101344.56
2023-04-29T05:27:59.036Z,101349.47
2023-04-29T05:33:06.729Z,101362.91
2023-04-29T05:38:10.842Z,101341.03
2023-04-29T05:43:16.537Z,101368.34
2023-04-29T05:48:20.532Z,101371.53
2023-04-29T05:53:23.540Z,101380.44
2023-04-29T05:58:26.574Z,101389.72
2023-04-29T06:03:31.275Z,101393.16
2023-04-29T06:09:01.891Z,101399.69
2023-04-29T06:14:06.658Z,101406.28
2023-04-29T06:19:10.813Z,101407.72
2023-04-29T06:24:13.526Z,101424.69
2023-04-29T06:29:16.166Z,101432.16
2023-04-29T06:34:20.551Z,101437.59
2023-04-29T06:39:43.148Z,101438.69
2023-04-29T06:44:54.166Z,101458.41
2023-04-29T06:50:17.427Z,101453.38
2023-04-29T06:55:20.066Z,101458.91
2023-04-29T07:00:23.156Z,101466.09
2023-04-29T07:05:27.087Z,101468.56
2023-04-29T07:10:29.683Z,101470.56
2023-04-29T07:15:35.334Z,101480.88
2023-04-29T07:20:39.331Z,101487.63
2023-04-29T07:25:42.097Z,101497.00
2023-04-29T07:30:44.679Z,101492.06
2023-04-29T07:35:48.646Z,101517.53
2023-04-29T07:40:51.236Z,101511.88
2023-04-29T07:45:54.275Z,101519.75
2023-04-29T07:50:58.346Z,101533.19
2023-04-29T07:56:00.914Z,101537.31
2023-04-29T08:01:06.938Z,101542.25
2023-04-29T08:06:11.349Z,101541.59
2023-04-29T08:11:17.387Z,101552.06
2023-04-29T08:16:21.572Z,101556.50
2023-04-29T08:21:25.649Z,101565.41
2023-04-29T08:26:28.308Z,101561.13
2023-04-29T08:31:31.331Z,101571.03
2023-04-29T08:36:37.044Z,101566.03
2023-04-29T08:41:40.018Z,101581.88
2023-04-29T08:46:43.379Z,101580.16
2023-04-29T08:51:49.539Z,101584.03
2023-04-29T08:56:53.000Z,101594.88
2023-04-29T09:01:57.417Z,101548.34
2023-04-29T09:07:02.692Z,101594.22
2023-04-29T09:12:05.618Z,101607.69
2023-04-29T09:17:08.342Z,101612.72
2023-04-29T09:22:12.323Z,101619.03
2023-04-29T09:27:27.640Z,101625.31
2023-04-29T09:32:30.864Z,101621.91
2023-04-29T09:37:35.055Z,101626.47
2023-04-29T09:42:44.080Z,101632.03
2023-04-29T09:47:46.714Z,101636.19
2023-04-29T09:52:50.642Z,101637.53
2023-04-29T09:57:53.373Z,101640.03
2023-04-29T10:02:59.546Z,101645.53
2023-04-29T10:08:04.278Z,101648.78
2023-04-29T10:13:07.149Z,101653.25
2023-04-29T10:18:18.695Z,101653.50
2023-04-29T10:23:24.958Z,101658.53
2023-04-29T10:28:32.556Z,101665.72
2023-04-29T10:33:37.413Z,101660.41
2023-04-29T10:38:45.802Z,101670.84
2023-04-29T10:43:49.754Z,101676.75
2023-04-29T10:48:57.431Z,101673.00
2023-04-29T10:54:03.440Z,101680.63
2023-04-29T10:59:06.523Z,101671.69
2023-04-29T11:04:11.061Z,101643.66
2023-04-29T11:09:21.321Z,101671.03
2023-04-29T11:14:26.338Z,101695.78
2023-04-29T11:19:33.370Z,101688.16
2023-04-29T11:24:37.559Z,101689.88
2023-04-29T11:29:41.010Z,101686.38
2023-04-29T11:34:43.775Z,101688.09
2023-04-29T11:39:47.958Z,101687.59
2023-04-29T11:44:54.679Z,101681.97
2023-04-29T11:50:04.296Z,101659.97
2023-04-29T11:55:10.054Z,101680.97
2023-04-29T12:00:14.425Z,101693.47
2023-04-29T12:05:19.225Z,101679.84
2023-04-29T12:10:23.603Z,101681.22
2023-04-29T12:15:27.042Z,101683.09
2023-04-29T12:20:29.766Z,101692.38
2023-04-29T12:25:33.670Z,101689.84
2023-04-29T12:30:36.292Z,101693.59
2023-04-29T12:35:39.042Z,101688.16
2023-04-29T12:40:42.953Z,101697.63
2023-04-29T12:45:45.826Z,101687.50
2023-04-29T12:50:51.357Z,101690.75
2023-04-29T12:55:56.098Z,101694.28
2023-04-29T13:00:59.297Z,101668.25
2023-04-29T13:06:02.583Z,101688.13
2023-04-29T13:11:07.546Z,101698.69
2023-04-29T13:16:11.335Z,101699.06
2023-04-29T13:21:13.901Z,101710.19
2023-04-29T13:26:19.533Z,101712.75
2023-04-29T13:31:22.190Z,101712.41
2023-04-29T13:36:24.978Z,101713.91
2023-04-29T13:41:29.443Z,101713.38
2023-04-29T13:46:32.897Z,101706.78
2023-04-29T13:52:16.850Z,101706.59
2023-04-29T14:07:10.737Z,101710.84
2023-04-29T14:12:15.669Z,101718.88
2023-04-29T14:17:19.471Z,101710.56
2023-04-29T14:22:22.399Z,101719.41
2023-04-29T14:27:27.093Z,101719.56
2023-04-29T14:32:30.113Z,101726.75
2023-04-29T14:37:32.966Z,101723.28
2023-04-29T14:42:37.053Z,101733.81
2023-04-29T14:47:40.169Z,101738.38
2023-04-29T14:52:42.858Z,101738.91
2023-04-29T14:57:46.762Z,101736.19
2023-04-29T15:02:50.469Z,101740.69
2023-04-29T15:07:53.074Z,101750.06
2023-04-29T15:12:56.987Z,101741.47
2023-04-29T15:18:01.679Z,101737.66
2023-04-29T15:23:04.732Z,101739.31
2023-04-29T15:28:08.899Z,101741.88
2023-04-29T15:33:11.640Z,101743.47
2023-04-29T15:38:14.234Z,101745.81
2023-04-29T15:43:18.519Z,101746.22
2023-04-29T15:48:21.743Z,101753.94
2023-04-29T15:53:24.345Z,101753.13
2023-04-29T15:58:28.817Z,101730.84
2023-04-29T16:03:31.547Z,101752.66
2023-04-29T16:08:34.175Z,101759.28
2023-04-29T16:13:38.197Z,101755.44
2023-04-29T16:18:40.923Z,101773.63
2023-04-29T16:23:44.411Z,101772.44
2023-04-29T16:28:48.650Z,101768.53
2023-04-29T16:33:51.838Z,101760.72
2023-04-29T16:38:54.942Z,101765.44
2023-04-29T16:43:59.026Z,101767.97
2023-04-29T16:49:01.809Z,101767.25
2023-04-29T16:54:04.665Z,101772.47
2023-04-29T16:59:11.151Z,101770.66
2023-04-29T17:04:14.569Z,101770.78
2023-04-29T17:09:17.607Z,101775.34
2023-04-29T17:14:21.751Z,101709.56
2023-04-29T17:19:24.324Z,101779.94
2023-04-29T17:24:27.198Z,101776.53
2023-04-29T17:29:32.937Z,101777.59
2023-04-29T17:34:37.349Z,101773.31
2023-04-29T17:39:39.908Z,101777.16
2023-04-29T17:44:43.974Z,101783.69
2023-04-29T17:49:46.581Z,101786.56
2023-04-29T17:54:49.383Z,101780.16
2023-04-29T17:59:53.676Z,101771.38
2023-04-29T18:04:56.455Z,101795.06
2023-04-29T18:10:01.101Z,101793.78
2023-04-29T18:15:06.262Z,101792.06
2023-04-29T18:20:10.603Z,101795.13
2023-04-29T18:25:13.453Z,101798.97
2023-04-29T18:30:17.846Z,101721.31
2023-04-29T18:35:20.467Z,101793.50
2023-04-29T18:40:23.342Z,101724.09
2023-04-29T18:45:27.422Z,101796.69
2023-04-29T18:50:29.984Z,101799.88
2023-04-29T18:55:32.780Z,101800.25
2023-04-29T19:00:36.746Z,101812.09
2023-04-29T19:05:39.391Z,101803.22
2023-04-29T19:10:41.913Z,101808.09
2023-04-29T19:15:50.373Z,101827.31
2023-04-29T19:20:53.488Z,101825.03
2023-04-29T19:25:56.092Z,101831.03
2023-04-29T19:31:00.227Z,101826.03
2023-04-29T19:36:04.130Z,101834.41
2023-04-29T19:41:06.900Z,101825.84
2023-04-29T19:46:12.690Z,101824.97
2023-04-29T19:51:15.469Z,101826.88
2023-04-29T19:56:19.999Z,101835.06
2023-04-29T20:01:23.978Z,101821.94
2023-04-29T20:06:27.023Z,101842.84
2023-04-29T20:11:29.757Z,101855.84
2023-04-29T20:16:35.280Z,101862.31
2023-04-29T20:21:41.155Z,101872.47
2023-04-29T20:26:44.469Z,101870.91
2023-04-29T20:31:48.382Z,101876.09
2023-04-29T20:36:51.120Z,101871.63
2023-04-29T20:41:56.201Z,101885.44
2023-04-29T20:47:00.121Z,101886.88
2023-04-29T20:52:02.662Z,101893.44
2023-04-29T20:57:05.656Z,101898.94
2023-04-29T21:02:10.289Z,101901.69
2023-04-29T21:07:13.005Z,101897.59
2023-04-29T21:12:15.788Z,101906.00
2023-04-29T21:17:19.667Z,101908.06
2023-04-29T21:22:22.296Z,101917.97
2023-04-29T21:27:24.915Z,101920.91
2023-04-29T21:32:29.439Z,101904.63
2023-04-29T21:37:33.762Z,101942.00
2023-04-29T21:42:36.731Z,101935.72
2023-04-29T21:47:40.933Z,101945.09
2023-04-29T21:52:43.617Z,101949.09
2023-04-29T21:57:46.362Z,101949.09
2023-04-29T22:02:50.464Z,101949.03
2023-04-29T22:07:53.075Z,101959.41
2023-04-29T22:12:55.943Z,101935.13
2023-04-29T22:17:59.961Z,101962.88
2023-04-29T22:23:02.524Z,101972.13
2023-04-29T22:28:05.816Z,101977.69
2023-04-29T22:33:10.016Z,101980.59
2023-04-29T22:38:12.691Z,101975.66
2023-04-29T22:43:15.679Z,101963.75
2023-04-29T22:48:19.588Z,101991.88
2023-04-29T22:53:22.719Z,102001.72
2023-04-29T22:58:26.162Z,101996.34
2023-04-29T23:03:30.072Z,101998.53
2023-04-29T23:08:32.762Z,102004.78
2023-04-29T23:13:35.744Z,102005.84
2023-04-29T23:18:39.639Z,102005.31
2023-04-29T23:23:42.321Z,102018.19
2023-04-29T23:28:44.861Z,102009.41
2023-04-29T23:33:48.814Z,102016.75
2023-04-29T23:38:51.390Z,102018.16
2023-04-29T23:43:55.928Z,102016.47
2023-04-29T23:49:00.033Z,102016.56
2023-04-29T23:54:02.573Z,102016.25
2023-04-29T23:59:05.177Z,102029.19
